KLHM/LHM METAR and TAF weather

Enter ICAO airport designator
Station Type Date Time Source
KLHM METAR 2022/11/26 09:15 UTC NOAA

KLHM 260915Z AUTO 00000KT 10SM CLR 02/00 A3020 RMK AO1


Station Type Date Time Source
KLHM Decoded METAR 2022/11/26 09:15 UTC NOAA

Station name not available
Nov 26, 2022 - 04:15 AM EST / 2022.11.26 0915 UTC
Wind: Calm:0
Visibility: 10 mile(s):0
Sky conditions: clear
Temperature: 35 F (2 C)
Dew Point: 32 F (0 C)
Relative Humidity: 86%
Pressure (altimeter): 30.2 in. Hg (1022 hPa)
ob: KLHM 260915Z AUTO 00000KT 10SM CLR 02/00 A3020 RMK AO1
cycle: 9

Station Type Date Time Source
KLHM TAF UTC NOAA

Error!

Example: see airport list